SHMÚ 65 rokov / 1954-2019 - Ďakujeme našim partnerom


SHMÚ vydal meteorologické výstrahy na Dážď Zobraziť výstrahy

SHMÚ vydal hydrologické výstrahy na   Povodeň z trvalého dažďa Zobraziť výstrahy

METAR

Letisková meteorologická správa METAR

Meteorologické informácie z ďalších profesionálnych meteorologických staníc SHMÚ zobrazené v tvare zodpovedajúcom pravidlám kódovania správ METAR sú uvedené v položke „METSYN

Informácie o správe METAR

22.11.2019 - 00:30 UTC

METAR LZIB 220030Z VRB02KT 9000 FEW013 08/07 Q1014=
METAR LZKZ 220030Z 13007KT 9999 SCT045 BKN065 09/06 Q1018=
METAR LZPP 220030Z AUTO 13016KT 9999 OVC090/// 12/09 Q1014=
METAR LZSL 220030Z 25003KT 9000 OVC022 09/08 Q1016=
METAR LZTT 220030Z VRB02KT 9999 BKN028 07/06 Q1016=
METAR LZZI 220030Z VRB01KT 9999 FEW033 06/05 Q1014=

22.11.2019 - 00:00 UTC

METAR LZIB 220000Z 12005KT 9999 FEW013 BKN087 08/07 Q1014=
METAR LZKZ 220000Z VRB02KT 9999 SCT045 BKN065 09/08 Q1018=
METAR LZPP 220000Z AUTO 13014KT 9999 OVC091/// 12/09 Q1014=
METAR LZSL 220000Z VRB01KT 9000 OVC025 09/07 Q1016=
METAR LZTT 220000Z 18003KT 130V210 9999 -RA OVC028 07/07 Q1016=
METAR LZZI 220000Z VRB02KT 9999 FEW057 06/05 Q1014=

21.11.2019 - 21:00 UTC

METAR LZMC 212100Z 14014G24KT 9999 FEW015 BKN110 10/08
Q1013=

skok na menu ↑


skok na začiatok stránky ↑